Gulfstream Express — 3EQK2 — position and weather

sailwx.info

Track history (hours):
 
Tides and Currents Weather Stations Pressure Air Temp Water Temp Dewpoint Dewpoint Depression Visibility Wind Speed Wind Dir Waves Ship Positions

Gulfstream Express

Last reported at 2014-Jul-30 14:32 UTC. Time now 2014-Jul-30 15:19 UTC.
Position N 26°04' W 080°08'.

Length 70 m; draft 3.3 m.

Type: Cargo ship. MMSI: 371114000.

Date/timePositionNaut miles runAvg speedWind from/ knotsBaromVisibWave heightAir tempDewpointWater temp
2014-Jul-30 14:32N 26°04' W 080°08'0 0.0
2014-Jul-30 13:32N 26°04' W 080°08'0 0.0
2014-Jul-30 12:32N 26°04' W 080°08'0 0.0
2014-Jul-30 11:32N 26°04' W 080°08'0 0.0
2014-Jul-30 10:32N 26°04' W 080°08'0 0.0
2014-Jul-30 09:32N 26°04' W 080°08'0 0.0
2014-Jul-30 08:32N 26°04' W 080°08'0 0.0
2014-Jul-30 07:23N 26°04' W 080°08'0 0.0
2014-Jul-30 06:23N 26°04' W 080°08'0 0.0
2014-Jul-30 05:26N 26°04' W 080°08'0 0.0
2014-Jul-30 04:26N 26°04' W 080°08'0 0.0
2014-Jul-30 03:26N 26°04' W 080°08'0 0.0
2014-Jul-30 02:29N 26°04' W 080°08'0 0.0
2014-Jul-30 01:29N 26°04' W 080°08'0 0.0
2014-Jul-30 00:32N 26°04' W 080°08'0 0.0
2014-Jul-29 23:32N 26°04' W 080°08'0 0.0
2014-Jul-29 22:32N 26°04' W 080°08'0 0.0
2014-Jul-29 21:32N 26°04' W 080°08'0 0.0
2014-Jul-29 20:32N 26°04' W 080°08'0 0.0
2014-Jul-29 19:33N 26°04' W 080°08'1 0.9
2014-Jul-29 18:33N 26°04' W 080°07'7 7.0
2014-Jul-29 17:33N 25°59' W 080°02'  
2014-Jul-24 15:29N 26°07' W 079°20'1111.4
2014-Jul-24 14:33N 26°06' W 079°31'1110.6
2014-Jul-24 13:33N 26°06' W 079°43'1010.1
2014-Jul-24 12:33N 26°06' W 079°54'1010.2
2014-Jul-24 11:33N 26°06' W 080°06'3 2.6
2014-Jul-24 10:32N 26°04' W 080°08'0 0.0
2014-Jul-24 09:32N 26°04' W 080°08'0 0.0
2014-Jul-24 08:32N 26°04' W 080°08'0 0.0
2014-Jul-24 07:23N 26°04' W 080°08'0 0.0
2014-Jul-24 06:23N 26°04' W 080°08'0 0.0
2014-Jul-24 05:26N 26°04' W 080°08'0 0.0
2014-Jul-24 04:26N 26°04' W 080°08'0 0.0
2014-Jul-24 03:26N 26°04' W 080°08'0 0.0
2014-Jul-24 02:29N 26°04' W 080°08'0 0.0
2014-Jul-24 01:29N 26°04' W 080°08'0 0.0
2014-Jul-24 00:32N 26°04' W 080°08'0 0.0
2014-Jul-23 23:32N 26°04' W 080°08'0 0.0
2014-Jul-23 22:32N 26°04' W 080°08'0 0.0
2014-Jul-23 21:29N 26°04' W 080°08'0 0.0
2014-Jul-23 20:26N 26°04' W 080°08'0 0.0
2014-Jul-23 19:26N 26°04' W 080°08'0 0.0
2014-Jul-23 18:26N 26°04' W 080°08'0 0.0
2014-Jul-23 17:29N 26°04' W 080°08'0 0.0
2014-Jul-23 16:29N 26°04' W 080°08'0 0.0
2014-Jul-23 15:29N 26°04' W 080°08'0 0.0
2014-Jul-23 14:32N 26°04' W 080°08'0 0.0
2014-Jul-23 13:32N 26°04' W 080°08'0 0.0
2014-Jul-23 12:32N 26°04' W 080°08'0 0.0
2014-Jul-23 11:32N 26°04' W 080°08'0 0.0
2014-Jul-23 10:32N 26°04' W 080°08'0 0.0
2014-Jul-23 09:32N 26°04' W 080°08'0 0.0
2014-Jul-23 08:23N 26°04' W 080°08'0 0.0
2014-Jul-23 07:26N 26°04' W 080°08'0 0.0
2014-Jul-23 06:26N 26°04' W 080°08'0 0.0
2014-Jul-23 05:26N 26°04' W 080°08'0 0.0
2014-Jul-23 04:26N 26°04' W 080°08'0 0.0
2014-Jul-23 03:29N 26°04' W 080°08'0 0.0
2014-Jul-23 02:29N 26°04' W 080°08'0 0.0
2014-Jul-23 01:32N 26°04' W 080°08'0 0.0
2014-Jul-23 00:32N 26°04' W 080°08'0 0.0
2014-Jul-22 23:32N 26°04' W 080°08'0 0.0
2014-Jul-22 22:32N 26°04' W 080°08'0 0.0
2014-Jul-22 21:32N 26°04' W 080°08'0 0.0
2014-Jul-22 20:32N 26°04' W 080°08'0 0.0
2014-Jul-22 19:32N 26°04' W 080°08'0 0.0
2014-Jul-22 18:32N 26°04' W 080°08'0 0.0
2014-Jul-22 17:23N 26°04' W 080°08'0 0.0
2014-Jul-22 16:26N 26°04' W 080°08'0 0.0
2014-Jul-22 15:32N 26°04' W 080°08'0 0.2
2014-Jul-22 14:33N 26°04' W 080°08'5 5.3
2014-Jul-22 13:33N 26°05' W 080°02'1110.8
2014-Jul-22 12:33N 26°06' W 079°50'1110.7
2014-Jul-22 11:33N 26°06' W 079°38'  
Track history (hours):
 
Tides and Currents Weather Stations Pressure Air Temp Water Temp Dewpoint Dewpoint Depression Visibility Wind Speed Wind Dir Waves Ship Positions

Gulfstream Express

Last reported at 2014-Jul-30 14:32 UTC. Time now 2014-Jul-30 15:19 UTC.
Position N 26°04' W 080°08'.

Length 70 m; draft 3.3 m.

Type: Cargo ship. MMSI: 371114000.

Date/timePositionNaut miles runAvg speedWind from/ knotsBaromVisibWave heightAir tempDewpointWater temp
2014-Jul-30 14:32N 26°04' W 080°08'0 0.0
2014-Jul-30 13:32N 26°04' W 080°08'0 0.0
2014-Jul-30 12:32N 26°04' W 080°08'0 0.0
2014-Jul-30 11:32N 26°04' W 080°08'0 0.0
2014-Jul-30 10:32N 26°04' W 080°08'0 0.0
2014-Jul-30 09:32N 26°04' W 080°08'0 0.0
2014-Jul-30 08:32N 26°04' W 080°08'0 0.0
2014-Jul-30 07:23N 26°04' W 080°08'0 0.0
2014-Jul-30 06:23N 26°04' W 080°08'0 0.0
2014-Jul-30 05:26N 26°04' W 080°08'0 0.0
2014-Jul-30 04:26N 26°04' W 080°08'0 0.0
2014-Jul-30 03:26N 26°04' W 080°08'0 0.0
2014-Jul-30 02:29N 26°04' W 080°08'0 0.0
2014-Jul-30 01:29N 26°04' W 080°08'0 0.0
2014-Jul-30 00:32N 26°04' W 080°08'0 0.0
2014-Jul-29 23:32N 26°04' W 080°08'0 0.0
2014-Jul-29 22:32N 26°04' W 080°08'0 0.0
2014-Jul-29 21:32N 26°04' W 080°08'0 0.0
2014-Jul-29 20:32N 26°04' W 080°08'0 0.0
2014-Jul-29 19:33N 26°04' W 080°08'1 0.9
2014-Jul-29 18:33N 26°04' W 080°07'7 7.0
2014-Jul-29 17:33N 25°59' W 080°02'  
2014-Jul-24 15:29N 26°07' W 079°20'1111.4
2014-Jul-24 14:33N 26°06' W 079°31'1110.6
2014-Jul-24 13:33N 26°06' W 079°43'1010.1
2014-Jul-24 12:33N 26°06' W 079°54'1010.2
2014-Jul-24 11:33N 26°06' W 080°06'3 2.6
2014-Jul-24 10:32N 26°04' W 080°08'0 0.0
2014-Jul-24 09:32N 26°04' W 080°08'0 0.0
2014-Jul-24 08:32N 26°04' W 080°08'0 0.0
2014-Jul-24 07:23N 26°04' W 080°08'0 0.0
2014-Jul-24 06:23N 26°04' W 080°08'0 0.0
2014-Jul-24 05:26N 26°04' W 080°08'0 0.0
2014-Jul-24 04:26N 26°04' W 080°08'0 0.0
2014-Jul-24 03:26N 26°04' W 080°08'0 0.0
2014-Jul-24 02:29N 26°04' W 080°08'0 0.0
2014-Jul-24 01:29N 26°04' W 080°08'0 0.0
2014-Jul-24 00:32N 26°04' W 080°08'0 0.0
2014-Jul-23 23:32N 26°04' W 080°08'0 0.0
2014-Jul-23 22:32N 26°04' W 080°08'0 0.0
2014-Jul-23 21:29N 26°04' W 080°08'0 0.0
2014-Jul-23 20:26N 26°04' W 080°08'0 0.0
2014-Jul-23 19:26N 26°04' W 080°08'0 0.0
2014-Jul-23 18:26N 26°04' W 080°08'0 0.0
2014-Jul-23 17:29N 26°04' W 080°08'0 0.0
2014-Jul-23 16:29N 26°04' W 080°08'0 0.0
2014-Jul-23 15:29N 26°04' W 080°08'0 0.0
2014-Jul-23 14:32N 26°04' W 080°08'0 0.0
2014-Jul-23 13:32N 26°04' W 080°08'0 0.0
2014-Jul-23 12:32N 26°04' W 080°08'0 0.0
2014-Jul-23 11:32N 26°04' W 080°08'0 0.0
2014-Jul-23 10:32N 26°04' W 080°08'0 0.0
2014-Jul-23 09:32N 26°04' W 080°08'0 0.0
2014-Jul-23 08:23N 26°04' W 080°08'0 0.0
2014-Jul-23 07:26N 26°04' W 080°08'0 0.0
2014-Jul-23 06:26N 26°04' W 080°08'0 0.0
2014-Jul-23 05:26N 26°04' W 080°08'0 0.0
2014-Jul-23 04:26N 26°04' W 080°08'0 0.0
2014-Jul-23 03:29N 26°04' W 080°08'0 0.0
2014-Jul-23 02:29N 26°04' W 080°08'0 0.0
2014-Jul-23 01:32N 26°04' W 080°08'0 0.0
2014-Jul-23 00:32N 26°04' W 080°08'0 0.0
2014-Jul-22 23:32N 26°04' W 080°08'0 0.0
2014-Jul-22 22:32N 26°04' W 080°08'0 0.0
2014-Jul-22 21:32N 26°04' W 080°08'0 0.0
2014-Jul-22 20:32N 26°04' W 080°08'0 0.0
2014-Jul-22 19:32N 26°04' W 080°08'0 0.0
2014-Jul-22 18:32N 26°04' W 080°08'0 0.0
2014-Jul-22 17:23N 26°04' W 080°08'0 0.0
2014-Jul-22 16:26N 26°04' W 080°08'0 0.0
2014-Jul-22 15:32N 26°04' W 080°08'0 0.2
2014-Jul-22 14:33N 26°04' W 080°08'5 5.3
2014-Jul-22 13:33N 26°05' W 080°02'1110.8
2014-Jul-22 12:33N 26°06' W 079°50'1110.7
2014-Jul-22 11:33N 26°06' W 079°38'  

Dump ship's entire track history